Time;durP1;ratioP1;P1;durP2;ratioP2;P2;SDS_P1;SDS_P2;PMS_P1;PMS_P2;Temp;Humidity;BMP_temperature;BMP_pressure;BME280_temperature;BME280_humidity;BME280_pressure;Samples;Min_cycle;Max_cycle;Signal;HPM_P1;HPM_P2
2023/07/04 00:01:12;;;;;;;5.47;1.65;;;;;;;12.11;78.16;100184.59;5029789;28;20049;-43
2023/07/04 00:03:40;;;;;;;5.03;1.17;;;;;;;12.12;78.13;100190.94;5032294;28;20045;-42
2023/07/04 00:06:12;;;;;;;7.35;1.35;;;;;;;12.07;78.52;100189.25;5023446;28;20128;-43
2023/07/04 00:08:39;;;;;;;6.30;1.17;;;;;;;12.02;78.63;100184.03;5031533;28;20049;-43
2023/07/04 00:11:07;;;;;;;6.63;1.60;;;;;;;12.01;78.68;100187.97;5031829;28;20041;-42
2023/07/04 00:13:36;;;;;;;6.30;1.77;;;;;;;12.00;78.89;100188.34;5031429;28;20073;-43
2023/07/04 00:16:09;;;;;;;7.28;2.80;;;;;;;11.97;78.98;100186.28;5014092;28;20045;-43
2023/07/04 00:18:39;;;;;;;7.22;1.50;;;;;;;11.93;79.33;100190.97;5027462;28;20491;-44
2023/07/04 00:21:12;;;;;;;10.45;1.88;;;;;;;11.90;79.55;100194.50;5039213;28;20042;-46
2023/07/04 00:23:45;;;;;;;6.82;2.65;;;;;;;11.87;79.53;100189.66;5031309;28;20574;-42
2023/07/04 00:26:16;;;;;;;3.15;1.55;;;;;;;11.89;79.51;100179.81;5007922;28;20045;-43
2023/07/04 00:28:43;;;;;;;6.43;1.48;;;;;;;11.92;79.55;100197.69;5027582;28;20369;-43
2023/07/04 00:31:15;;;;;;;10.45;2.08;;;;;;;11.87;79.56;100186.91;5031242;28;20107;-43
2023/07/04 00:33:43;;;;;;;5.85;1.38;;;;;;;11.84;79.75;100196.75;5031273;28;20079;-44
2023/07/04 00:36:14;;;;;;;5.22;2.22;;;;;;;11.83;79.88;100183.28;5013374;28;20429;-44
2023/07/04 00:38:42;;;;;;;6.30;1.40;;;;;;;11.83;79.86;100183.28;5011882;28;20060;-43
2023/07/04 00:41:21;;;;;;;4.47;1.30;;;;;;;11.79;80.04;100182.38;5031022;28;20037;-42
2023/07/04 00:44:01;;;;;;;7.78;1.70;;;;;;;11.75;80.15;100179.56;5031313;28;20049;-42
2023/07/04 00:46:38;;;;;;;9.00;2.03;;;;;;;11.75;80.20;100178.75;5024846;28;20566;-43
2023/07/04 00:49:17;;;;;;;5.55;1.33;;;;;;;11.73;80.28;100178.31;5024463;28;20053;-43
2023/07/04 00:52:23;;;;;;;3.05;1.35;;;;;;;11.73;80.46;100172.78;5031311;28;20392;-43
2023/07/04 00:54:57;;;;;;;8.77;1.38;;;;;;;11.70;80.26;100179.06;5029469;28;20073;-43
2023/07/04 00:57:32;;;;;;;4.55;1.20;;;;;;;11.68;80.44;100175.78;5030905;28;20123;-42
2023/07/04 01:00:08;;;;;;;;;;;;;;;11.65;80.67;100171.78;5027455;28;20092;-44
2023/07/04 01:02:35;;;;;;;4.90;1.48;;;;;;;11.65;80.17;100165.47;5024833;28;19982;-43
2023/07/04 01:05:03;;;;;;;9.98;2.67;;;;;;;11.61;80.38;100166.19;5013297;28;20076;-43
2023/07/04 01:08:05;;;;;;;7.65;1.50;;;;;;;11.54;80.87;100162.47;5029077;28;20092;-43
2023/07/04 01:10:36;;;;;;;5.50;1.40;;;;;;;11.51;80.55;100160.44;5017832;28;20115;-44
2023/07/04 01:13:03;;;;;;;2.30;1.45;;;;;;;11.49;80.78;100158.00;5031136;28;20136;-43
2023/07/04 01:15:30;;;;;;;5.38;1.92;;;;;;;11.49;80.61;100160.78;5013101;28;20136;-43
2023/07/04 01:18:00;;;;;;;2.75;1.48;;;;;;;11.47;80.86;100148.44;5030836;28;20045;-44
2023/07/04 01:20:28;;;;;;;5.60;1.23;;;;;;;11.45;80.98;100164.66;5030729;28;20054;-43
2023/07/04 01:23:02;;;;;;;7.35;1.50;;;;;;;11.41;81.32;100161.78;5025289;28;20104;-44
2023/07/04 01:25:46;;;;;;;5.30;1.23;;;;;;;11.35;81.66;100157.72;5030051;28;20064;-43
2023/07/04 01:28:14;;;;;;;7.45;3.15;;;;;;;11.33;81.39;100160.03;5041064;28;20073;-43
2023/07/04 01:30:44;;;;;;;6.97;1.45;;;;;;;11.30;81.64;100160.00;5021457;28;20060;-43
2023/07/04 01:33:13;;;;;;;9.70;3.03;;;;;;;11.30;81.59;100154.44;5034544;28;20045;-43
2023/07/04 01:35:41;;;;;;;5.50;1.48;;;;;;;11.28;81.79;100152.03;5034691;28;20137;-43
2023/07/04 01:38:07;;;;;;;5.22;1.40;;;;;;;11.30;81.81;100154.44;5033696;28;20061;-44
2023/07/04 01:40:35;;;;;;;3.58;1.20;;;;;;;11.30;81.75;100163.56;5034616;28;20045;-43
2023/07/04 01:43:03;;;;;;;8.68;1.63;;;;;;;11.30;81.90;100157.22;5034187;28;20049;-43
2023/07/04 01:45:30;;;;;;;6.95;2.20;;;;;;;11.28;81.92;100156.78;5034899;28;20491;-43
2023/07/04 01:47:57;;;;;;;8.15;1.70;;;;;;;11.25;82.05;100158.28;5033915;28;20041;-43
2023/07/04 01:50:24;;;;;;;7.18;1.40;;;;;;;11.21;82.04;100153.84;5026463;28;20488;-44
2023/07/04 01:52:51;;;;;;;4.32;1.27;;;;;;;11.21;82.21;100138.03;5031638;28;20391;-44
2023/07/04 01:55:18;;;;;;;7.22;1.20;;;;;;;11.21;82.10;100151.06;5034444;28;20053;-45
2023/07/04 01:57:46;;;;;;;6.00;2.10;;;;;;;11.19;82.18;100140.38;5034117;28;20602;-43
2023/07/04 02:00:13;;;;;;;3.25;2.22;;;;;;;11.19;82.14;100145.91;5034219;28;20434;-43
2023/07/04 02:02:40;;;;;;;4.78;1.25;;;;;;;11.15;82.36;100146.97;5034411;28;20054;-43
2023/07/04 02:05:08;;;;;;;5.63;1.60;;;;;;;11.14;82.33;100142.63;5034013;28;20047;-45
2023/07/04 02:07:34;;;;;;;5.63;1.42;;;;;;;11.14;82.46;100143.44;5014442;28;20038;-43
2023/07/04 02:10:01;;;;;;;8.57;1.73;;;;;;;11.14;82.44;100146.19;5033963;28;20041;-43
2023/07/04 02:12:28;;;;;;;9.00;1.50;;;;;;;11.14;82.59;100143.44;5033730;28;20053;-43
2023/07/04 02:14:55;;;;;;;3.45;0.95;;;;;;;11.12;82.61;100140.19;5034030;28;20042;-44
2023/07/04 02:17:22;;;;;;;5.03;1.58;;;;;;;11.10;82.61;100145.31;5033717;28;20069;-43
2023/07/04 02:19:49;;;;;;;7.20;1.02;;;;;;;11.11;82.53;100144.16;5033248;28;20130;-45
2023/07/04 02:22:15;;;;;;;6.40;2.28;;;;;;;11.09;82.82;100137.38;5014046;28;20056;-43
2023/07/04 02:24:42;;;;;;;4.05;1.38;;;;;;;11.08;82.74;100135.75;5030654;28;20054;-43
2023/07/04 02:27:09;;;;;;;3.60;1.52;;;;;;;11.08;82.60;100142.09;5032728;28;20065;-45
2023/07/04 02:29:36;;;;;;;7.13;1.52;;;;;;;11.04;82.72;100141.22;5023029;28;20049;-43
2023/07/04 02:32:02;;;;;;;8.30;1.65;;;;;;;11.03;82.78;100136.84;5031467;28;20457;-43
2023/07/04 02:34:29;;;;;;;2.83;1.42;;;;;;;11.05;82.84;100130.94;5032303;28;20053;-43
2023/07/04 02:36:56;;;;;;;6.00;1.20;;;;;;;11.03;82.72;100134.09;5030985;28;20052;-43
2023/07/04 02:39:27;;;;;;;8.65;1.80;;;;;;;10.99;83.00;100135.97;5015039;28;20033;-44
2023/07/04 02:41:54;;;;;;;5.65;1.65;;;;;;;10.99;83.17;100138.72;5034483;28;20052;-43
2023/07/04 02:44:21;;;;;;;7.35;1.77;;;;;;;10.96;83.05;100131.19;5031694;28;20060;-43
2023/07/04 02:46:47;;;;;;;8.10;2.40;;;;;;;10.96;83.11;100134.72;5032109;28;20049;-43
2023/07/04 02:49:14;;;;;;;4.22;1.13;;;;;;;10.95;83.31;100132.31;5032496;28;20045;-43
2023/07/04 02:51:41;;;;;;;3.13;1.50;;;;;;;10.95;83.26;100133.13;5012242;28;20045;-44
2023/07/04 02:54:08;;;;;;;8.02;1.48;;;;;;;10.95;83.28;100129.56;5029993;28;20100;-43
2023/07/04 02:56:35;;;;;;;5.05;1.33;;;;;;;10.95;83.38;100132.31;5031228;28;20050;-43
2023/07/04 02:59:02;;;;;;;3.15;1.15;;;;;;;10.93;83.40;100129.13;5031869;28;20046;-43
2023/07/04 03:01:29;;;;;;;11.30;1.83;;;;;;;10.94;83.50;100130.72;5042658;23;20113;-45
2023/07/04 03:03:56;;;;;;;4.65;1.20;;;;;;;10.94;83.25;100119.63;4991425;28;20077;-45
2023/07/04 03:06:23;;;;;;;6.00;1.60;;;;;;;10.93;83.37;100134.66;4992543;28;20052;-46
2023/07/04 03:08:51;;;;;;;9.23;2.38;;;;;;;10.91;83.46;100135.00;4991817;28;20053;-46
2023/07/04 03:11:18;;;;;;;6.53;1.52;;;;;;;10.90;83.53;100124.31;4990930;28;20055;-46
2023/07/04 03:13:45;;;;;;;5.05;1.42;;;;;;;10.89;83.47;100120.72;4988562;28;20049;-45
2023/07/04 03:16:12;;;;;;;7.75;2.75;;;;;;;10.87;83.41;100112.00;4981677;28;20868;-45
2023/07/04 03:18:39;;;;;;;9.88;1.60;;;;;;;10.86;83.43;100117.88;4989286;28;20049;-46
2023/07/04 03:21:05;;;;;;;6.15;1.65;;;;;;;10.83;83.73;100110.28;4993063;28;20042;-43
2023/07/04 03:23:32;;;;;;;7.43;1.58;;;;;;;10.82;83.63;100117.00;4993097;28;20526;-43
2023/07/04 03:25:59;;;;;;;7.53;2.20;;;;;;;10.81;83.85;100110.66;4991765;28;20089;-43
2023/07/04 03:28:26;;;;;;;3.25;1.55;;;;;;;10.82;83.90;100115.03;4987428;28;20045;-43
2023/07/04 03:30:53;;;;;;;6.45;1.80;;;;;;;10.77;83.85;100120.88;4992994;28;20507;-44
2023/07/04 03:33:21;;;;;;;7.13;1.60;;;;;;;10.75;83.92;100114.09;4992960;28;20488;-45
2023/07/04 03:35:48;;;;;;;6.55;1.70;;;;;;;10.73;83.97;100111.66;4992468;28;20093;-44
2023/07/04 03:38:25;;;;;;;5.07;1.15;;;;;;;10.72;83.96;100112.81;4991781;28;20054;-44
2023/07/04 03:40:52;;;;;;;4.78;1.35;;;;;;;10.70;84.18;100106.03;4992945;28;20042;-43
2023/07/04 03:43:21;;;;;;;7.90;2.92;;;;;;;10.71;84.03;100107.66;4991815;28;20077;-43
2023/07/04 03:45:48;;;;;;;7.03;1.60;;;;;;;10.70;84.16;100111.56;4990918;28;20038;-43
2023/07/04 03:48:15;;;;;;;4.55;1.90;;;;;;;10.69;84.52;100108.03;4990365;28;20138;-45
2023/07/04 03:50:43;;;;;;;7.22;1.70;;;;;;;10.67;84.24;100098.47;4990923;28;20038;-43
2023/07/04 03:53:10;;;;;;;11.10;1.70;;;;;;;10.67;84.17;100104.78;4986080;28;20058;-43
2023/07/04 03:55:37;;;;;;;7.63;1.73;;;;;;;10.68;84.41;100105.59;4992282;28;20129;-43
2023/07/04 03:58:03;;;;;;;5.65;1.73;;;;;;;10.67;84.39;100112.31;4985444;28;20042;-43
2023/07/04 04:00:31;;;;;;;5.50;1.65;;;;;;;10.65;84.43;100098.81;4989352;28;20046;-43
2023/07/04 04:02:58;;;;;;;9.98;1.48;;;;;;;10.67;84.35;100113.09;4991618;28;20082;-43
2023/07/04 04:05:26;;;;;;;6.57;1.55;;;;;;;10.67;84.44;100098.47;4989773;28;20496;-44
2023/07/04 04:07:53;;;;;;;4.65;1.85;;;;;;;10.65;84.29;100101.59;4986631;28;20124;-45
2023/07/04 04:10:20;;;;;;;8.73;1.98;;;;;;;10.66;84.40;100102.41;4992135;28;20503;-44
2023/07/04 04:12:47;;;;;;;3.67;1.42;;;;;;;10.65;84.47;100112.66;4992018;28;20436;-43
2023/07/04 04:15:14;;;;;;;3.88;1.23;;;;;;;10.64;84.53;100102.78;4988334;28;20046;-43
2023/07/04 04:17:41;;;;;;;5.40;1.40;;;;;;;10.65;84.52;100117.38;4984271;28;20051;-44
2023/07/04 04:20:09;;;;;;;4.65;1.88;;;;;;;10.63;84.65;100108.66;4989495;28;20465;-43
2023/07/04 04:22:43;;;;;;;8.60;1.70;;;;;;;10.62;84.53;100112.56;4991437;28;20050;-43
2023/07/04 04:25:12;;;;;;;5.63;1.48;;;;;;;10.58;84.71;100103.41;4971958;28;20050;-45
2023/07/04 04:27:39;;;;;;;7.88;2.75;;;;;;;10.59;84.80;100111.34;4985231;28;20050;-44
2023/07/04 04:30:09;;;;;;;4.00;1.80;;;;;;;10.59;85.03;100102.25;4987683;28;20392;-43
2023/07/04 04:32:37;;;;;;;9.20;2.00;;;;;;;10.60;84.84;100098.28;4990250;28;20042;-43
2023/07/04 04:35:05;;;;;;;6.47;1.60;;;;;;;10.57;84.93;100104.56;4990330;28;20038;-44
2023/07/04 04:37:32;;;;;;;5.55;1.63;;;;;;;10.57;85.10;100093.47;4982819;28;20455;-43
2023/07/04 04:39:59;;;;;;;4.90;1.83;;;;;;;10.56;85.04;100092.69;4991103;28;20042;-43
2023/07/04 04:42:27;;;;;;;7.70;1.45;;;;;;;10.55;85.12;100091.09;4995166;28;20056;-43
2023/07/04 04:44:54;;;;;;;5.40;1.65;;;;;;;10.56;85.20;100089.13;4986852;28;20527;-43
2023/07/04 04:47:25;;;;;;;5.00;1.73;;;;;;;10.56;85.23;100091.91;4978559;28;20054;-44
2023/07/04 04:49:52;;;;;;;6.45;1.58;;;;;;;10.57;85.25;100093.47;4987115;28;20042;-43
2023/07/04 04:52:21;;;;;;;9.50;1.60;;;;;;;10.60;85.39;100101.06;4986260;28;20109;-43
2023/07/04 04:54:48;;;;;;;5.78;1.52;;;;;;;10.60;85.26;100104.63;4979012;28;20038;-43
2023/07/04 04:57:16;;;;;;;5.57;1.67;;;;;;;10.63;85.15;100100.34;4985154;28;20093;-42
2023/07/04 04:59:43;;;;;;;7.00;2.08;;;;;;;10.66;85.18;100102.41;4988397;28;20042;-43
2023/07/04 05:02:09;;;;;;;9.13;1.42;;;;;;;10.66;85.31;100099.63;4991422;28;20059;-44
2023/07/04 05:04:36;;;;;;;4.70;1.58;;;;;;;10.68;85.21;100097.28;4992677;28;20500;-43
2023/07/04 05:07:04;;;;;;;5.28;1.35;;;;;;;10.69;85.19;100090.59;4995342;28;20093;-44
2023/07/04 05:09:32;;;;;;;7.43;1.67;;;;;;;10.71;85.30;100099.34;4994549;28;20057;-42
2023/07/04 05:12:00;;;;;;;3.40;1.40;;;;;;;10.72;85.31;100096.19;4995295;28;20054;-43
2023/07/04 05:14:28;;;;;;;3.63;1.30;;;;;;;10.74;85.24;100093.09;4995458;28;20042;-43
2023/07/04 05:16:55;;;;;;;5.85;1.55;;;;;;;10.75;85.23;100094.69;4995666;28;20046;-44
2023/07/04 05:19:22;;;;;;;7.07;1.92;;;;;;;10.74;85.28;100093.91;4996094;28;20038;-43
2023/07/04 05:21:49;;;;;;;4.97;1.65;;;;;;;10.78;85.42;100096.72;4991569;28;20404;-43
2023/07/04 05:24:15;;;;;;;6.20;1.58;;;;;;;10.81;85.28;100087.69;4994829;28;20038;-43
2023/07/04 05:26:42;;;;;;;3.58;1.50;;;;;;;10.83;85.37;100093.66;4986856;28;20419;-43
2023/07/04 05:29:09;;;;;;;3.60;1.30;;;;;;;10.84;85.37;100098.06;4993630;28;20042;-44
2023/07/04 05:31:36;;;;;;;4.93;1.90;;;;;;;10.84;85.42;100092.50;4984147;28;20129;-42
2023/07/04 05:34:03;;;;;;;4.65;1.30;;;;;;;10.87;85.66;100098.13;4994387;28;20081;-45
2023/07/04 05:36:33;;;;;;;5.78;1.60;;;;;;;10.89;85.53;100101.34;4991644;28;20050;-43
2023/07/04 05:39:03;;;;;;;6.32;2.58;;;;;;;10.90;85.57;100086.34;4994411;28;20045;-47
2023/07/04 05:41:31;;;;;;;4.38;1.80;;;;;;;10.95;85.67;100101.84;4992818;28;20042;-43
2023/07/04 05:44:00;;;;;;;9.00;2.08;;;;;;;10.98;85.79;100095.59;4986457;28;20038;-42
2023/07/04 05:46:28;;;;;;;3.13;1.58;;;;;;;11.02;85.79;100088.16;4992462;28;20054;-49
2023/07/04 05:48:56;;;;;;;6.90;1.58;;;;;;;11.06;85.83;100104.84;4990401;28;20050;-48
2023/07/04 05:51:24;;;;;;;4.95;1.35;;;;;;;11.07;85.97;100096.16;4990989;28;20049;-43
2023/07/04 05:53:52;;;;;;;7.55;1.63;;;;;;;11.11;85.91;100096.25;4993550;28;20077;-45
2023/07/04 05:56:26;;;;;;;9.15;1.73;;;;;;;11.16;85.83;100094.00;4994532;28;20455;-43
2023/07/04 05:58:55;;;;;;;3.08;1.25;;;;;;;11.20;85.96;100088.53;4993090;28;20546;-48
2023/07/04 06:01:35;;;;;;;4.40;1.10;;;;;;;11.21;85.88;100090.94;4993276;28;20377;-46
2023/07/04 06:04:03;;;;;;;3.83;1.15;;;;;;;11.27;85.82;100095.03;4992134;28;20042;-46
2023/07/04 06:06:33;;;;;;;2.75;1.20;;;;;;;11.28;85.82;100082.75;4994758;28;20070;-46
2023/07/04 06:09:03;;;;;;;5.72;1.83;;;;;;;11.32;86.01;100103.03;4991687;28;20101;-46
2023/07/04 06:11:33;;;;;;;3.80;1.33;;;;;;;11.36;85.81;100087.25;4994625;28;20109;-45
2023/07/04 06:14:02;;;;;;;5.43;1.17;;;;;;;11.41;85.72;100089.72;4994200;28;20050;-45
2023/07/04 06:16:29;;;;;;;4.28;1.45;;;;;;;11.46;85.79;100088.66;4993287;28;20415;-46
2023/07/04 06:18:56;;;;;;;6.25;1.88;;;;;;;11.50;85.90;100086.75;4993132;28;20046;-46
2023/07/04 06:21:24;;;;;;;6.38;1.48;;;;;;;11.55;85.76;100090.00;4994292;28;20065;-46
2023/07/04 06:24:09;;;;;;;11.55;1.58;;;;;;;11.60;85.60;100097.22;4967628;28;20042;-46
2023/07/04 06:26:36;;;;;;;6.35;1.50;;;;;;;11.62;85.72;100095.69;4994094;28;20092;-46
2023/07/04 06:29:03;;;;;;;6.13;1.40;;;;;;;11.70;85.63;100098.63;4994038;28;20038;-46
2023/07/04 06:31:30;;;;;;;8.90;2.28;;;;;;;11.73;85.68;100095.13;4993025;28;20050;-45
2023/07/04 06:33:57;;;;;;;3.72;1.77;;;;;;;11.78;85.68;100092.06;4993339;28;20492;-47
2023/07/04 06:36:24;;;;;;;5.72;1.40;;;;;;;11.86;85.67;100088.22;4994010;28;20138;-47
2023/07/04 06:38:51;;;;;;;3.88;1.25;;;;;;;11.89;85.48;100087.47;4993946;28;20055;-46
2023/07/04 06:41:19;;;;;;;7.28;2.50;;;;;;;11.93;85.38;100085.56;4994383;28;20192;-46
2023/07/04 06:43:47;;;;;;;3.05;1.40;;;;;;;11.98;85.33;100096.34;4993845;28;20035;-45
2023/07/04 06:46:18;;;;;;;5.03;1.60;;;;;;;12.02;85.32;100088.91;4996368;28;20049;-46
2023/07/04 06:48:49;;;;;;;8.23;2.03;;;;;;;12.08;85.32;100084.63;4995202;28;20050;-46
2023/07/04 06:51:18;;;;;;;10.70;1.27;;;;;;;12.13;84.94;100092.63;4992819;28;20488;-46
2023/07/04 06:53:45;;;;;;;5.30;1.45;;;;;;;12.19;84.95;100082.84;4993754;28;20049;-45
2023/07/04 06:56:15;;;;;;;7.63;1.55;;;;;;;12.24;84.91;100090.84;4993680;28;20121;-46
2023/07/04 06:58:46;;;;;;;3.05;1.05;;;;;;;12.31;84.91;100092.94;4986085;28;20054;-46
2023/07/04 07:01:14;;;;;;;8.65;2.13;;;;;;;12.39;85.06;100091.88;4994658;28;20054;-45
2023/07/04 07:03:40;;;;;;;4.72;1.58;;;;;;;12.46;84.71;100081.69;4987462;28;20043;-46
2023/07/04 07:06:10;;;;;;;10.07;1.42;;;;;;;12.53;84.68;100084.56;4985573;28;20047;-46
2023/07/04 07:08:38;;;;;;;6.65;1.63;;;;;;;12.64;84.99;100079.97;4983075;28;20065;-48
2023/07/04 07:11:08;;;;;;;3.20;1.52;;;;;;;12.77;84.90;100084.13;4983034;28;20053;-46
2023/07/04 07:13:36;;;;;;;20.02;2.67;;;;;;;12.90;85.02;100084.69;4984744;28;20116;-45
2023/07/04 07:16:16;;;;;;;5.07;1.17;;;;;;;13.04;85.22;100084.06;4986903;28;20046;-46
2023/07/04 07:18:45;;;;;;;8.00;1.30;;;;;;;13.15;85.53;100083.06;4991196;28;20042;-44
2023/07/04 07:21:15;;;;;;;7.20;2.55;;;;;;;13.28;85.62;100083.59;4992207;28;20046;-44
2023/07/04 07:23:42;;;;;;;5.07;1.60;;;;;;;13.39;86.08;100082.56;4990680;28;20137;-46
2023/07/04 07:26:14;;;;;;;6.22;1.27;;;;;;;13.55;86.28;100082.34;4991869;28;20034;-46
2023/07/04 07:28:42;;;;;;;2.53;1.00;;;;;;;13.71;87.00;100077.34;4992480;28;20038;-45
2023/07/04 07:31:12;;;;;;;2.28;1.13;;;;;;;13.88;87.39;100081.47;4993217;28;20053;-45
2023/07/04 07:33:45;;;;;;;10.48;1.60;;;;;;;14.07;88.49;100077.66;4993182;28;20055;-45
2023/07/04 07:36:14;;;;;;;9.13;1.85;;;;;;;14.31;89.69;100088.19;4993273;28;20133;-46
2023/07/04 07:38:41;;;;;;;3.08;1.38;;;;;;;14.51;89.86;100093.16;4974156;28;20054;-43
2023/07/04 07:41:08;;;;;;;3.40;1.00;;;;;;;14.70;90.42;100083.72;4986788;28;20042;-43
2023/07/04 07:43:38;;;;;;;5.30;1.23;;;;;;;14.96;91.23;100079.88;4987076;28;20450;-44
2023/07/04 07:46:09;;;;;;;2.25;1.27;;;;;;;15.30;92.43;100089.59;4981782;28;20038;-45
2023/07/04 07:48:37;;;;;;;;;;;;;;;15.65;91.30;100098.09;4984927;28;20057;-47
2023/07/04 07:51:06;;;;;;;4.10;1.80;;;;;;;16.21;93.47;100089.00;4989639;28;19922;-45
2023/07/04 07:53:34;;;;;;;7.00;1.40;;;;;;;16.68;90.89;100095.41;4992972;28;20053;-45
2023/07/04 07:56:03;;;;;;;2.95;0.90;;;;;;;17.17;88.24;100095.25;4989978;28;20050;-47
2023/07/04 07:58:31;;;;;;;5.00;1.63;;;;;;;17.78;84.49;100093.78;4986384;28;20449;-45
2023/07/04 08:00:57;;;;;;;4.25;1.27;;;;;;;18.42;80.76;100105.31;4984616;28;20043;-45
2023/07/04 08:03:24;;;;;;;3.15;1.30;;;;;;;18.99;76.88;100107.56;5000586;28;20048;-45
2023/07/04 08:05:51;;;;;;;8.50;1.00;;;;;;;19.52;73.67;100102.13;4994296;28;20046;-47
2023/07/04 08:08:18;;;;;;;10.05;1.30;;;;;;;20.16;70.77;100096.41;4995755;28;20496;-47
2023/07/04 08:10:45;;;;;;;2.58;1.13;;;;;;;20.75;68.08;100099.44;4999395;28;20077;-44
2023/07/04 08:13:13;;;;;;;5.82;1.48;;;;;;;21.35;65.28;100097.47;4993809;28;20089;-45
2023/07/04 08:15:40;;;;;;;4.28;0.75;;;;;;;21.90;63.58;100094.66;4988587;28;20053;-46
2023/07/04 08:18:09;;;;;;;4.57;1.40;;;;;;;22.23;61.19;100092.69;4996327;28;20104;-45
2023/07/04 08:20:37;;;;;;;2.47;0.93;;;;;;;22.39;59.55;100087.84;4991386;28;20049;-45
2023/07/04 08:23:04;;;;;;;7.60;1.10;;;;;;;22.51;57.95;100089.16;4997771;28;20461;-48
2023/07/04 08:25:31;;;;;;;5.60;1.00;;;;;;;22.56;56.90;100090.66;4998770;28;20103;-46
2023/07/04 08:27:57;;;;;;;9.73;1.60;;;;;;;22.74;56.00;100100.25;4995829;28;20054;-46
2023/07/04 08:30:24;;;;;;;3.53;0.90;;;;;;;22.87;55.06;100087.03;4993713;28;20104;-46
2023/07/04 08:32:53;;;;;;;3.50;1.13;;;;;;;23.00;53.91;100081.44;4993477;28;20042;-46
2023/07/04 08:35:20;;;;;;;7.32;1.33;;;;;;;23.08;52.79;100082.00;4990596;28;20626;-46
2023/07/04 08:37:47;;;;;;;3.85;0.95;;;;;;;23.22;52.05;100087.28;4991594;28;20046;-50
2023/07/04 08:40:16;;;;;;;2.92;1.20;;;;;;;23.34;51.17;100087.28;4992021;28;20050;-45
2023/07/04 08:42:45;;;;;;;3.65;1.75;;;;;;;23.50;50.33;100087.25;5001581;28;20097;-46
2023/07/04 08:45:20;;;;;;;3.03;1.10;;;;;;;23.70;50.11;100091.91;4987963;28;20046;-45
2023/07/04 08:47:47;;;;;;;2.65;1.20;;;;;;;23.85;48.91;100090.25;4994135;28;20107;-47
2023/07/04 08:50:23;;;;;;;2.33;0.77;;;;;;;23.95;48.28;100100.41;4969637;28;20050;-45
2023/07/04 08:53:01;;;;;;;2.67;0.80;;;;;;;23.98;47.55;100093.88;4995247;28;20096;-45
2023/07/04 08:55:34;;;;;;;4.35;0.88;;;;;;;23.96;46.52;100099.94;4994807;28;20084;-46
2023/07/04 08:58:04;;;;;;;4.30;1.02;;;;;;;24.08;46.05;100092.72;4992144;28;20848;-45
2023/07/04 09:00:35;;;;;;;6.30;1.02;;;;;;;24.31;45.65;100089.56;4988065;28;20495;-45
2023/07/04 09:03:22;;;;;;;2.33;0.60;;;;;;;24.41;45.63;100096.91;4989510;28;20100;-46
2023/07/04 09:05:56;;;;;;;5.93;1.00;;;;;;;24.36;44.98;100091.81;4971628;28;21646;-45
2023/07/04 09:08:31;;;;;;;3.78;1.08;;;;;;;24.49;44.76;100095.41;4984881;28;20118;-47
2023/07/04 09:11:09;;;;;;;2.90;1.05;;;;;;;24.70;44.54;100093.91;4985057;28;20070;-46
2023/07/04 09:13:42;;;;;;;3.05;1.08;;;;;;;24.83;43.93;100097.53;4987156;28;20047;-46
2023/07/04 09:16:18;;;;;;;4.38;0.95;;;;;;;24.77;43.63;100105.00;4959629;28;20432;-47
2023/07/04 09:19:08;;;;;;;3.50;0.80;;;;;;;24.13;43.86;100092.19;4954665;28;20046;-48
2023/07/04 09:21:38;;;;;;;4.15;0.90;;;;;;;23.85;43.90;100096.69;4953892;28;20061;-46
2023/07/04 09:24:05;;;;;;;3.03;0.90;;;;;;;24.05;43.41;100090.81;4953647;28;20125;-47
2023/07/04 09:26:44;;;;;;;3.00;0.73;;;;;;;24.36;42.70;100086.16;4955080;28;20050;-48
2023/07/04 09:29:15;;;;;;;3.88;0.80;;;;;;;24.22;42.22;100095.13;4955013;28;20057;-50
2023/07/04 09:31:45;;;;;;;2.67;1.00;;;;;;;23.25;42.78;100087.16;4956273;28;20054;-49
2023/07/04 09:34:53;;;;;;;6.22;0.85;;;;;;;22.74;43.79;100093.84;4939001;28;20077;-46
2023/07/04 09:37:24;;;;;;;3.53;1.08;;;;;;;22.75;44.70;100089.75;4953423;28;20868;-46
2023/07/04 09:39:58;;;;;;;1.90;0.75;;;;;;;23.32;44.33;100089.78;4953754;28;20781;-49
2023/07/04 09:42:42;;;;;;;4.00;1.15;;;;;;;23.88;43.27;100089.34;4955850;28;20049;-47
2023/07/04 09:45:22;;;;;;;3.33;0.60;;;;;;;23.38;42.92;100090.03;4938339;28;21602;-50
2023/07/04 09:47:49;;;;;;;2.42;0.80;;;;;;;23.15;43.75;100099.53;4953871;28;20065;-50
2023/07/04 09:50:26;;;;;;;4.82;1.35;;;;;;;23.55;43.48;100086.69;4956707;28;21373;-51
2023/07/04 09:53:03;;;;;;;4.90;1.02;;;;;;;24.03;42.82;100079.94;4956164;28;20100;-48
2023/07/04 09:55:31;;;;;;;4.15;1.25;;;;;;;24.22;42.23;100083.81;4958353;28;20041;-48
2023/07/04 09:58:19;;;;;;;4.80;0.93;;;;;;;24.04;42.51;100084.34;4958076;28;20081;-49
2023/07/04 10:01:12;;;;;;;2.22;0.85;;;;;;;24.41;42.09;100079.16;4957653;28;20038;-50
2023/07/04 10:03:40;;;;;;;1.48;0.80;;;;;;;24.90;41.00;100080.28;4958985;28;20468;-48
2023/07/04 10:06:09;;;;;;;1.80;0.70;;;;;;;25.06;40.50;100073.63;4985000;28;20689;-45
2023/07/04 10:08:56;;;;;;;4.80;1.00;;;;;;;25.24;40.12;100082.28;4990188;28;20046;-49
2023/07/04 10:11:34;;;;;;;2.83;0.68;;;;;;;25.38;39.75;100076.88;4978610;28;20069;-47
2023/07/04 10:14:06;;;;;;;2.15;0.82;;;;;;;25.34;39.99;100070.53;4962247;28;20056;-46
2023/07/04 10:16:33;;;;;;;3.13;1.15;;;;;;;25.57;39.82;100074.19;4986349;28;20046;-45
2023/07/04 10:19:12;;;;;;;3.00;0.85;;;;;;;25.03;39.95;100077.38;4991353;28;20054;-46
2023/07/04 10:21:40;;;;;;;1.95;1.40;;;;;;;23.79;41.13;100069.41;4990995;28;20059;-47
2023/07/04 10:24:10;;;;;;;3.78;1.42;;;;;;;23.24;42.11;100073.50;4991102;28;20053;-46
2023/07/04 10:26:38;;;;;;;2.53;0.77;;;;;;;23.18;42.36;100069.63;4992412;28;20403;-46
2023/07/04 10:29:05;;;;;;;3.88;0.82;;;;;;;22.95;42.88;100065.81;4990826;28;20609;-46
2023/07/04 10:31:33;;;;;;;4.22;0.77;;;;;;;22.77;43.24;100073.19;4986247;28;20043;-48
2023/07/04 10:34:03;;;;;;;5.68;1.15;;;;;;;22.99;43.09;100071.34;4993183;28;20050;-46
2023/07/04 10:36:36;;;;;;;4.13;0.90;;;;;;;23.26;42.70;100066.16;4992467;28;20046;-46
2023/07/04 10:39:09;;;;;;;1.92;0.90;;;;;;;23.18;43.06;100064.75;4990489;28;20515;-50
2023/07/04 10:41:58;;;;;;;2.38;0.98;;;;;;;22.81;43.27;100062.59;4988417;28;20491;-45
2023/07/04 10:44:29;;;;;;;3.58;0.85;;;;;;;22.51;43.63;100060.13;4991129;28;20093;-48
2023/07/04 10:47:03;;;;;;;1.48;0.60;;;;;;;22.22;44.03;100052.41;4992893;28;20404;-45
2023/07/04 10:49:36;;;;;;;7.38;1.52;;;;;;;22.08;44.41;100060.44;4989803;28;20132;-46
2023/07/04 10:52:30;;;;;;;3.72;1.13;;;;;;;22.14;44.44;100059.47;4993252;28;20053;-48
2023/07/04 10:54:58;;;;;;;3.05;1.27;;;;;;;22.14;44.09;100051.00;4980603;28;20046;-46
2023/07/04 10:57:36;;;;;;;3.22;0.90;;;;;;;22.06;43.63;100052.41;4993744;28;20046;-48
2023/07/04 11:00:33;;;;;;;2.95;0.85;;;;;;;21.82;43.55;100048.13;4989439;28;20531;-46
2023/07/04 11:03:06;;;;;;;2.58;0.90;;;;;;;21.97;43.87;100043.78;4986082;28;20081;-45
2023/07/04 11:05:41;;;;;;;0.55;0.50;;;;;;;22.12;43.83;100045.03;4987015;28;20155;-46
2023/07/04 11:08:14;;;;;;;2.45;0.60;;;;;;;22.05;43.73;100047.22;4993854;28;20034;-46
2023/07/04 11:10:42;;;;;;;1.83;1.05;;;;;;;21.97;43.43;100038.16;4988758;28;20544;-46
2023/07/04 11:13:16;;;;;;;5.55;0.93;;;;;;;21.91;43.91;100037.09;4973107;28;20109;-45
2023/07/04 11:15:46;;;;;;;3.70;1.45;;;;;;;21.90;44.07;100032.66;4989843;28;20491;-46
2023/07/04 11:18:18;;;;;;;2.08;0.70;;;;;;;21.97;43.94;100040.97;4988735;28;20527;-47
2023/07/04 11:20:54;;;;;;;1.58;0.82;;;;;;;21.60;44.04;100039.41;4989278;28;20046;-45
2023/07/04 11:23:23;;;;;;;4.55;1.02;;;;;;;21.21;44.49;100031.00;4984088;28;20039;-46
2023/07/04 11:26:04;;;;;;;2.40;0.68;;;;;;;20.92;44.35;100030.75;4991696;28;20049;-44
2023/07/04 11:28:34;;;;;;;3.17;0.60;;;;;;;20.67;45.14;100035.28;4990821;28;20050;-46
2023/07/04 11:31:18;;;;;;;1.80;0.60;;;;;;;20.55;45.07;100029.06;4991907;28;20081;-46
2023/07/04 11:33:55;;;;;;;2.75;0.70;;;;;;;20.68;45.14;100029.22;4978921;28;20078;-45
2023/07/04 11:36:30;;;;;;;0.82;0.80;;;;;;;20.90;45.32;100024.78;4991755;28;20057;-45
2023/07/04 11:39:00;;;;;;;6.38;0.85;;;;;;;21.22;45.53;100021.31;4990465;28;20046;-47